Time,TemperatureF,DewpointF,PressureIn,WindDirection,WindDirectionDegrees,WindSpeedMPH,WindSpeedGustMPH,Humidity,HourlyPrecipIn,Conditions,Clouds,dailyrainin,SoftwareType,DateUTC
2013-08-27 00:01:00,76.1,70.3,30.02,ENE,68,0.0,0.0,82,0.00,,,0.00,WUHU216HW,2013-08-27 05:01:00,
2013-08-27 00:06:00,76.1,70.3,30.02,South,180,0.4,0.4,82,0.00,,,0.00,WUHU216HW,2013-08-27 05:06:00,
2013-08-27 00:11:00,76.0,70.1,30.02,SSE,158,0.0,0.4,82,0.00,,,0.00,WUHU216HW,2013-08-27 05:11:00,
2013-08-27 00:16:00,76.0,70.1,30.02,SSE,158,0.0,0.2,82,0.00,,,0.00,WUHU216HW,2013-08-27 05:16:00,
2013-08-27 00:21:00,75.8,69.9,30.01,West,270,0.0,0.0,82,0.00,,,0.00,WUHU216HW,2013-08-27 05:21:00,
2013-08-27 00:26:00,75.8,69.9,30.02,WSW,248,0.1,0.4,82,0.00,,,0.00,WUHU216HW,2013-08-27 05:26:00,
2013-08-27 00:31:00,75.6,69.8,30.02,WSW,248,0.0,0.4,82,0.00,,,0.00,WUHU216HW,2013-08-27 05:31:00,
2013-08-27 00:36:00,75.6,69.8,30.02,WSW,248,0.0,0.0,82,0.00,,,0.00,WUHU216HW,2013-08-27 05:36:00,
2013-08-27 00:41:00,75.6,70.1,30.02,East,90,0.0,0.2,83,0.00,,,0.00,WUHU216HW,2013-08-27 05:41:00,
2013-08-27 00:46:00,75.8,70.3,30.01,East,90,0.0,0.2,83,0.00,,,0.00,WUHU216HW,2013-08-27 05:46:00,
2013-08-27 00:51:00,75.8,70.3,30.02,East,90,0.4,0.4,83,0.00,,,0.00,WUHU216HW,2013-08-27 05:51:00,
2013-08-27 00:56:00,75.8,70.3,30.01,East,90,0.0,0.4,83,0.00,,,0.00,WUHU216HW,2013-08-27 05:56:00,
2013-08-27 01:01:00,75.8,70.3,30.02,East,90,0.0,0.0,83,0.00,,,0.00,WUHU216HW,2013-08-27 06:01:00,
2013-08-27 01:06:00,75.8,69.9,30.02,East,90,0.0,0.0,82,0.00,,,0.00,WUHU216HW,2013-08-27 06:06:00,
2013-08-27 01:11:00,75.6,70.1,30.02,East,90,0.1,0.2,83,0.00,,,0.00,WUHU216HW,2013-08-27 06:11:00,
2013-08-27 01:16:00,75.6,70.1,30.01,East,90,0.0,0.2,83,0.00,,,0.00,WUHU216HW,2013-08-27 06:16:00,
2013-08-27 01:21:00,75.6,70.1,30.01,East,90,0.0,0.0,83,0.00,,,0.00,WUHU216HW,2013-08-27 06:21:00,
2013-08-27 01:26:00,75.4,69.9,30.02,East,90,0.0,0.0,83,0.00,,,0.00,WUHU216HW,2013-08-27 06:26:00,
2013-08-27 01:31:00,75.4,69.9,30.02,East,90,0.0,0.0,83,0.00,,,0.00,WUHU216HW,2013-08-27 06:31:00,
2013-08-27 01:36:00,75.2,69.8,30.01,East,90,0.0,0.0,83,0.00,,,0.00,WUHU216HW,2013-08-27 06:36:00,
2013-08-27 01:41:00,75.2,69.8,30.02,East,90,0.0,0.0,83,0.00,,,0.00,WUHU216HW,2013-08-27 06:41:00,
2013-08-27 01:46:00,75.2,69.8,30.01,East,90,0.0,0.0,83,0.00,,,0.00,WUHU216HW,2013-08-27 06:46:00,
2013-08-27 01:51:00,75.1,69.6,30.01,East,90,0.0,0.0,83,0.00,,,0.00,WUHU216HW,2013-08-27 06:51:00,
2013-08-27 01:56:00,75.1,69.6,30.01,East,90,0.0,0.0,83,0.00,,,0.00,WUHU216HW,2013-08-27 06:56:00,
2013-08-27 02:01:00,74.9,69.4,30.01,East,90,0.0,0.0,83,0.00,,,0.00,WUHU216HW,2013-08-27 07:01:00,
2013-08-27 02:06:00,74.9,69.4,30.01,East,90,0.0,0.2,83,0.00,,,0.00,WUHU216HW,2013-08-27 07:06:00,
2013-08-27 02:11:00,74.7,69.2,30.01,East,90,0.0,0.4,83,0.00,,,0.00,WUHU216HW,2013-08-27 07:11:00,
2013-08-27 02:16:00,74.5,69.0,30.01,East,90,0.0,0.4,83,0.00,,,0.00,WUHU216HW,2013-08-27 07:16:00,
2013-08-27 02:21:00,74.5,69.0,30.01,East,90,0.0,0.2,83,0.00,,,0.00,WUHU216HW,2013-08-27 07:21:00,
2013-08-27 02:26:00,74.3,68.9,30.01,East,90,0.0,0.0,83,0.00,,,0.00,WUHU216HW,2013-08-27 07:26:00,
2013-08-27 02:31:00,74.2,68.7,30.01,East,90,0.0,0.0,83,0.00,,,0.00,WUHU216HW,2013-08-27 07:31:00,
2013-08-27 02:36:00,74.2,69.0,30.01,East,90,0.0,0.2,84,0.00,,,0.00,WUHU216HW,2013-08-27 07:36:00,
2013-08-27 02:41:00,74.0,68.9,30.01,East,90,0.0,0.2,84,0.00,,,0.00,WUHU216HW,2013-08-27 07:41:00,
2013-08-27 02:46:00,73.8,68.7,30.01,East,90,0.0,0.4,84,0.00,,,0.00,WUHU216HW,2013-08-27 07:46:00,
2013-08-27 02:51:00,73.6,68.5,30.01,East,90,0.0,0.4,84,0.00,,,0.00,WUHU216HW,2013-08-27 07:51:00,
2013-08-27 02:56:00,73.4,68.3,30.01,East,90,0.0,0.0,84,0.00,,,0.00,WUHU216HW,2013-08-27 07:56:00,
2013-08-27 03:01:00,73.4,68.7,30.01,East,90,0.0,0.0,85,0.00,,,0.00,WUHU216HW,2013-08-27 08:01:00,
2013-08-27 03:06:00,73.3,68.5,30.01,East,90,0.0,0.0,85,0.00,,,0.00,WUHU216HW,2013-08-27 08:06:00,
2013-08-27 03:11:00,73.1,68.3,30.01,East,90,0.0,0.0,85,0.00,,,0.00,WUHU216HW,2013-08-27 08:11:00,
2013-08-27 03:16:00,73.1,68.3,30.01,East,90,0.0,0.0,85,0.00,,,0.00,WUHU216HW,2013-08-27 08:16:00,
2013-08-27 03:21:00,72.9,67.8,30.01,East,90,0.0,0.0,84,0.00,,,0.00,WUHU216HW,2013-08-27 08:21:00,
2013-08-27 03:26:00,72.7,67.6,30.01,East,90,0.0,0.0,84,0.00,,,0.00,WUHU216HW,2013-08-27 08:26:00,
2013-08-27 03:31:00,72.7,67.6,30.01,East,90,0.0,0.0,84,0.00,,,0.00,WUHU216HW,2013-08-27 08:31:00,
2013-08-27 03:36:00,72.7,67.6,30.01,East,90,0.0,0.0,84,0.00,,,0.00,WUHU216HW,2013-08-27 08:36:00,
2013-08-27 03:41:00,72.4,67.6,30.01,East,90,0.0,0.0,85,0.00,,,0.00,WUHU216HW,2013-08-27 08:41:00,
2013-08-27 03:46:00,72.4,67.6,30.01,East,90,0.0,0.4,85,0.00,,,0.00,WUHU216HW,2013-08-27 08:46:00,
2013-08-27 03:51:00,72.2,67.4,30.01,East,90,0.0,0.4,85,0.00,,,0.00,WUHU216HW,2013-08-27 08:51:00,
2013-08-27 03:56:00,72.0,67.6,30.01,East,90,0.0,0.0,86,0.00,,,0.00,WUHU216HW,2013-08-27 08:56:00,
2013-08-27 04:01:00,71.8,67.4,30.01,East,90,0.0,0.0,86,0.00,,,0.00,WUHU216HW,2013-08-27 09:01:00,
2013-08-27 04:06:00,71.8,67.4,30.01,East,90,0.0,0.0,86,0.00,,,0.00,WUHU216HW,2013-08-27 09:06:00,
2013-08-27 04:11:00,71.6,67.2,30.01,East,90,0.0,0.0,86,0.00,,,0.00,WUHU216HW,2013-08-27 09:11:00,
2013-08-27 04:16:00,71.6,67.2,30.01,East,90,0.0,0.0,86,0.00,,,0.00,WUHU216HW,2013-08-27 09:16:00,
2013-08-27 04:21:00,71.6,67.2,30.01,East,90,0.0,0.0,86,0.00,,,0.00,WUHU216HW,2013-08-27 09:21:00,
2013-08-27 04:26:00,71.5,67.1,30.01,East,90,0.0,0.0,86,0.00,,,0.00,WUHU216HW,2013-08-27 09:26:00,
2013-08-27 04:31:00,71.5,67.1,30.01,East,90,0.0,0.0,86,0.00,,,0.00,WUHU216HW,2013-08-27 09:31:00,
2013-08-27 04:36:00,71.5,67.1,30.01,East,90,0.0,0.0,86,0.00,,,0.00,WUHU216HW,2013-08-27 09:36:00,
2013-08-27 04:41:00,71.3,66.9,30.00,East,90,0.0,0.0,86,0.00,,,0.00,WUHU216HW,2013-08-27 09:41:00,
2013-08-27 04:46:00,71.3,66.9,30.01,East,90,0.0,0.0,86,0.00,,,0.00,WUHU216HW,2013-08-27 09:46:00,
2013-08-27 04:51:00,71.1,66.7,30.01,East,90,0.0,0.0,86,0.00,,,0.00,WUHU216HW,2013-08-27 09:51:00,
2013-08-27 04:55:00,70.9,66.5,30.01,East,90,0.0,0.0,86,0.00,,,0.00,WUHU216HW,2013-08-27 09:55:00,
2013-08-27 05:00:00,70.9,66.9,30.01,East,90,0.0,0.0,87,0.00,,,0.00,WUHU216HW,2013-08-27 10:00:00,
2013-08-27 05:05:00,70.6,66.5,30.01,East,90,0.0,0.0,87,0.00,,,0.00,WUHU216HW,2013-08-27 10:05:00,
2013-08-27 05:10:00,70.6,66.5,30.01,East,90,0.0,0.0,87,0.00,,,0.00,WUHU216HW,2013-08-27 10:10:00,
2013-08-27 05:15:00,70.6,66.5,30.01,East,90,0.0,0.0,87,0.00,,,0.00,WUHU216HW,2013-08-27 10:15:00,
2013-08-27 05:20:00,70.6,66.5,30.01,East,90,0.0,0.0,87,0.00,,,0.00,WUHU216HW,2013-08-27 10:20:00,
2013-08-27 05:25:00,70.4,66.6,30.01,East,90,0.0,0.0,88,0.00,,,0.00,WUHU216HW,2013-08-27 10:25:00,
2013-08-27 05:30:00,70.2,66.4,30.01,East,90,0.0,0.0,88,0.00,,,0.00,WUHU216HW,2013-08-27 10:30:00,
2013-08-27 05:35:00,70.2,66.4,30.01,East,90,0.0,0.0,88,0.00,,,0.00,WUHU216HW,2013-08-27 10:35:00,
2013-08-27 05:40:00,70.0,66.2,30.01,East,90,0.0,0.0,88,0.00,,,0.00,WUHU216HW,2013-08-27 10:40:00,
2013-08-27 05:45:00,70.0,66.2,30.02,East,90,0.0,0.0,88,0.00,,,0.00,WUHU216HW,2013-08-27 10:45:00,
2013-08-27 05:50:00,70.0,66.2,30.02,East,90,0.0,0.0,88,0.00,,,0.00,WUHU216HW,2013-08-27 10:50:00,
2013-08-27 05:55:00,69.8,66.1,30.02,East,90,0.0,0.0,88,0.00,,,0.00,WUHU216HW,2013-08-27 10:55:00,
2013-08-27 06:00:00,69.8,66.1,30.02,East,90,0.0,0.0,88,0.00,,,0.00,WUHU216HW,2013-08-27 11:00:00,
2013-08-27 06:05:00,69.7,65.9,30.02,ESE,113,0.0,0.0,88,0.00,,,0.00,WUHU216HW,2013-08-27 11:05:00,
2013-08-27 06:10:00,69.7,65.9,30.02,ESE,113,0.1,0.4,88,0.00,,,0.00,WUHU216HW,2013-08-27 11:10:00,
2013-08-27 06:15:00,69.5,65.7,30.02,ESE,113,0.0,0.4,88,0.00,,,0.00,WUHU216HW,2013-08-27 11:15:00,
2013-08-27 06:20:00,69.5,65.7,30.02,ESE,113,0.0,0.0,88,0.00,,,0.00,WUHU216HW,2013-08-27 11:20:00,
2013-08-27 06:25:00,69.5,65.7,30.02,ESE,113,0.0,0.0,88,0.00,,,0.00,WUHU216HW,2013-08-27 11:25:00,
2013-08-27 06:30:00,69.5,65.7,30.02,ESE,113,0.0,0.0,88,0.00,,,0.00,WUHU216HW,2013-08-27 11:30:00,
2013-08-27 06:35:00,69.5,65.7,30.02,ESE,113,0.0,0.0,88,0.00,,,0.00,WUHU216HW,2013-08-27 11:35:00,
2013-08-27 06:40:00,69.5,65.7,30.02,SE,135,0.0,0.0,88,0.00,,,0.00,WUHU216HW,2013-08-27 11:40:00,
2013-08-27 06:45:00,69.5,65.7,30.02,ENE,68,0.0,0.4,88,0.00,,,0.00,WUHU216HW,2013-08-27 11:45:00,
2013-08-27 06:50:00,69.5,65.7,30.03,ENE,68,0.0,0.4,88,0.00,,,0.00,WUHU216HW,2013-08-27 11:50:00,
2013-08-27 06:55:00,69.7,65.9,30.02,ENE,68,0.2,0.4,88,0.00,,,0.00,WUHU216HW,2013-08-27 11:55:00,
2013-08-27 07:00:00,69.7,65.9,30.02,SSW,203,0.4,0.4,88,0.00,,,0.00,WUHU216HW,2013-08-27 12:00:00,
2013-08-27 07:05:00,69.7,65.9,30.03,NW,315,0.2,0.4,88,0.00,,,0.00,WUHU216HW,2013-08-27 12:05:00,
2013-08-27 07:10:00,69.7,65.9,30.03,West,270,0.0,1.1,88,0.00,,,0.00,WUHU216HW,2013-08-27 12:10:00,
2013-08-27 07:15:00,69.8,66.1,30.03,ENE,68,0.9,1.1,88,0.00,,,0.00,WUHU216HW,2013-08-27 12:15:00,
2013-08-27 07:20:00,69.8,66.1,30.02,West,270,0.9,0.9,88,0.00,,,0.00,WUHU216HW,2013-08-27 12:20:00,
2013-08-27 07:25:00,70.0,66.2,30.02,WSW,248,0.1,0.9,88,0.00,,,0.00,WUHU216HW,2013-08-27 12:25:00,
2013-08-27 07:30:00,70.2,66.4,30.03,SE,135,0.1,0.4,88,0.00,,,0.00,WUHU216HW,2013-08-27 12:30:00,
2013-08-27 07:35:00,70.4,66.6,30.03,SSW,209,0.4,1.1,88,0.00,,,0.00,WUHU216HW,2013-08-27 12:35:00,
2013-08-27 07:40:00,70.6,66.8,30.03,ESE,113,1.1,1.1,88,0.00,,,0.00,WUHU216HW,2013-08-27 12:40:00,
2013-08-27 07:45:00,70.9,67.1,30.03,SSW,203,0.7,1.1,88,0.00,,,0.00,WUHU216HW,2013-08-27 12:45:00,
2013-08-27 07:50:00,71.3,67.5,30.03,SW,222,0.7,1.1,88,0.00,,,0.00,WUHU216HW,2013-08-27 12:50:00,
2013-08-27 07:55:00,71.6,67.9,30.02,SW,225,0.4,1.1,88,0.00,,,0.00,WUHU216HW,2013-08-27 12:55:00,
2013-08-27 08:00:00,72.0,68.0,30.03,SSE,158,0.4,1.1,87,0.00,,,0.00,WUHU216HW,2013-08-27 13:00:00,
2013-08-27 08:05:00,72.4,68.3,30.03,NW,315,0.7,1.1,87,0.00,,,0.00,WUHU216HW,2013-08-27 13:05:00,
2013-08-27 08:10:00,72.7,68.3,30.03,SW,225,0.7,0.7,86,0.00,,,0.00,WUHU216HW,2013-08-27 13:10:00,
2013-08-27 08:15:00,73.1,69.0,30.03,South,180,1.2,2.0,87,0.00,,,0.00,WUHU216HW,2013-08-27 13:15:00,
2013-08-27 08:20:00,73.4,69.0,30.03,SSW,203,1.1,2.0,86,0.00,,,0.00,WUHU216HW,2013-08-27 13:20:00,
2013-08-27 08:25:00,73.8,69.4,30.03,SSW,203,0.9,3.4,86,0.00,,,0.00,WUHU216HW,2013-08-27 13:25:00,
2013-08-27 08:30:00,74.3,69.6,30.03,SW,225,1.1,3.4,85,0.00,,,0.00,WUHU216HW,2013-08-27 13:30:00,
2013-08-27 08:35:00,74.5,69.8,30.03,SSW,203,0.7,2.2,85,0.00,,,0.00,WUHU216HW,2013-08-27 13:35:00,
2013-08-27 08:40:00,75.1,70.3,30.03,SW,225,1.1,2.0,85,0.00,,,0.00,WUHU216HW,2013-08-27 13:40:00,
2013-08-27 08:45:00,75.2,69.8,30.03,SW,225,1.5,2.5,83,0.00,,,0.00,WUHU216HW,2013-08-27 13:45:00,
2013-08-27 08:50:00,75.8,70.3,30.03,WSW,248,2.5,2.5,83,0.00,,,0.00,WUHU216HW,2013-08-27 13:50:00,
2013-08-27 08:55:00,76.3,70.5,30.03,SSW,197,0.8,2.5,82,0.00,,,0.00,WUHU216HW,2013-08-27 13:55:00,
2013-08-27 09:00:00,76.7,70.4,30.03,SE,135,2.2,2.2,81,0.00,,,0.00,WUHU216HW,2013-08-27 14:00:00,
2013-08-27 09:05:00,76.9,70.6,30.03,SW,225,2.9,3.6,81,0.00,,,0.00,WUHU216HW,2013-08-27 14:05:00,
2013-08-27 09:10:00,77.4,71.1,30.03,SE,135,1.3,3.6,81,0.00,,,0.00,WUHU216HW,2013-08-27 14:10:00,
2013-08-27 09:15:00,77.6,70.9,30.03,WSW,248,1.8,3.6,80,0.00,,,0.00,WUHU216HW,2013-08-27 14:15:00,
2013-08-27 09:20:00,77.9,70.5,30.03,SW,216,2.1,3.6,78,0.00,,,0.00,WUHU216HW,2013-08-27 14:20:00,
2013-08-27 09:25:00,78.1,70.3,30.03,SW,225,3.6,3.6,77,0.00,,,0.00,WUHU216HW,2013-08-27 14:25:00,
2013-08-27 09:30:00,78.5,71.0,30.03,SW,216,1.5,4.0,78,0.00,,,0.00,WUHU216HW,2013-08-27 14:30:00,
2013-08-27 09:35:00,79.0,71.6,30.03,WSW,248,2.2,4.0,78,0.00,,,0.00,WUHU216HW,2013-08-27 14:35:00,
2013-08-27 09:40:00,79.6,71.3,30.03,SW,225,3.0,3.6,76,0.00,,,0.00,WUHU216HW,2013-08-27 14:40:00,
2013-08-27 09:45:00,79.9,71.6,30.03,SW,225,1.8,3.8,76,0.00,,,0.00,WUHU216HW,2013-08-27 14:45:00,
2013-08-27 09:50:00,80.5,71.0,30.03,WSW,248,3.4,3.8,73,0.00,,,0.00,WUHU216HW,2013-08-27 14:50:00,
2013-08-27 09:55:00,80.8,71.4,30.03,SW,225,1.1,3.4,73,0.00,,,0.00,WUHU216HW,2013-08-27 14:55:00,
2013-08-27 10:00:00,81.2,71.3,30.03,SSE,158,1.3,2.9,72,0.00,,,0.00,WUHU216HW,2013-08-27 15:00:00,
2013-08-27 10:05:00,81.5,71.3,30.04,WSW,248,2.7,2.9,71,0.00,,,0.00,WUHU216HW,2013-08-27 15:05:00,
2013-08-27 10:10:00,81.7,71.4,30.04,WSW,248,1.8,2.9,71,0.00,,,0.00,WUHU216HW,2013-08-27 15:10:00,
2013-08-27 10:15:00,81.9,69.9,30.04,SW,225,5.5,6.5,67,0.00,,,0.00,WUHU216HW,2013-08-27 15:15:00,
2013-08-27 10:20:00,82.1,69.9,30.04,SW,215,4.2,6.5,67,0.00,,,0.00,WUHU216HW,2013-08-27 15:20:00,
2013-08-27 10:25:00,82.3,71.0,30.04,SSW,204,1.7,4.7,69,0.00,,,0.00,WUHU216HW,2013-08-27 15:25:00,
2013-08-27 10:30:00,82.4,71.2,30.04,SW,218,2.0,4.0,69,0.00,,,0.00,WUHU216HW,2013-08-27 15:30:00,
2013-08-27 10:35:00,83.0,70.8,30.03,SW,225,2.7,4.0,67,0.00,,,0.00,WUHU216HW,2013-08-27 15:35:00,
2013-08-27 10:40:00,83.2,70.6,30.04,SSW,194,2.9,4.3,66,0.00,,,0.00,WUHU216HW,2013-08-27 15:40:00,
2013-08-27 10:45:00,83.5,70.9,30.04,SW,225,3.4,4.3,66,0.00,,,0.00,WUHU216HW,2013-08-27 15:45:00,
2013-08-27 10:50:00,83.7,71.6,30.04,SW,225,2.5,3.8,67,0.00,,,0.00,WUHU216HW,2013-08-27 15:50:00,
2013-08-27 10:55:00,83.9,71.3,30.04,WSW,248,2.5,4.7,66,0.00,,,0.00,WUHU216HW,2013-08-27 15:55:00,
2013-08-27 11:00:00,84.2,72.1,30.04,West,276,1.7,4.7,67,0.00,,,0.00,WUHU216HW,2013-08-27 16:00:00,
2013-08-27 11:05:00,84.4,71.4,30.04,NW,315,2.9,4.7,65,0.00,,,0.00,WUHU216HW,2013-08-27 16:05:00,
2013-08-27 11:10:00,84.6,71.6,30.04,SSW,203,4.3,4.7,65,0.00,,,0.00,WUHU216HW,2013-08-27 16:10:00,
2013-08-27 11:15:00,84.6,71.1,30.04,SW,234,2.9,5.4,64,0.00,,,0.00,WUHU216HW,2013-08-27 16:15:00,
2013-08-27 11:20:00,84.8,70.8,30.04,SSW,205,1.4,5.4,63,0.00,,,0.00,WUHU216HW,2013-08-27 16:20:00,
2013-08-27 11:25:00,85.1,71.6,30.04,SW,225,2.7,4.7,64,0.00,,,0.00,WUHU216HW,2013-08-27 16:25:00,
2013-08-27 11:30:00,85.3,71.3,30.04,SE,135,2.5,3.8,63,0.00,,,0.00,WUHU216HW,2013-08-27 16:30:00,
2013-08-27 11:35:00,85.5,71.9,30.04,SSE,162,1.7,4.0,64,0.00,,,0.00,WUHU216HW,2013-08-27 16:35:00,
2013-08-27 11:40:00,85.9,71.8,30.04,South,178,1.0,4.0,63,0.00,,,0.00,WUHU216HW,2013-08-27 16:40:00,
2013-08-27 11:45:00,86.0,71.5,30.04,ESE,113,2.5,6.3,62,0.00,,,0.00,WUHU216HW,2013-08-27 16:45:00,
2013-08-27 11:50:00,85.9,71.4,30.03,SSE,158,2.9,6.3,62,0.00,,,0.00,WUHU216HW,2013-08-27 16:50:00,
2013-08-27 11:55:00,86.0,72.0,30.03,SSW,212,3.0,4.3,63,0.00,,,0.00,WUHU216HW,2013-08-27 16:55:00,
2013-08-27 12:00:00,86.0,72.0,30.03,South,180,3.4,3.6,63,0.00,,,0.00,WUHU216HW,2013-08-27 17:00:00,
2013-08-27 12:05:00,86.0,72.5,30.03,West,270,2.5,3.4,64,0.00,,,0.00,WUHU216HW,2013-08-27 17:05:00,
2013-08-27 12:10:00,86.4,72.3,30.03,SSW,203,2.5,4.9,63,0.00,,,0.00,WUHU216HW,2013-08-27 17:10:00,
2013-08-27 12:15:00,86.8,72.6,30.02,SE,135,2.0,4.9,63,0.00,,,0.00,WUHU216HW,2013-08-27 17:15:00,
2013-08-27 12:20:00,87.3,72.3,30.02,SW,225,3.3,3.8,61,0.00,,,0.00,WUHU216HW,2013-08-27 17:20:00,
2013-08-27 12:25:00,87.3,71.8,30.02,SW,225,2.9,3.8,60,0.00,,,0.00,WUHU216HW,2013-08-27 17:25:00,
2013-08-27 12:30:00,87.1,70.6,30.02,SSW,212,2.5,2.9,58,0.00,,,0.00,WUHU216HW,2013-08-27 17:30:00,
2013-08-27 12:35:00,87.3,70.7,30.02,West,270,2.0,2.9,58,0.00,,,0.00,WUHU216HW,2013-08-27 17:35:00,
2013-08-27 12:40:00,86.8,69.7,30.02,SW,232,2.5,3.4,57,0.00,,,0.00,WUHU216HW,2013-08-27 17:40:00,
2013-08-27 12:45:00,86.4,69.8,30.01,WSW,239,2.7,3.4,58,0.00,,,0.00,WUHU216HW,2013-08-27 17:45:00,
2013-08-27 12:50:00,86.4,70.4,30.01,WSW,248,2.5,3.6,59,0.00,,,0.00,WUHU216HW,2013-08-27 17:50:00,
2013-08-27 12:55:00,86.8,70.7,30.01,SW,225,2.5,3.6,59,0.00,,,0.00,WUHU216HW,2013-08-27 17:55:00,
2013-08-27 13:00:00,86.9,69.8,30.01,WNW,303,1.6,3.1,57,0.00,,,0.00,WUHU216HW,2013-08-27 18:00:00,
2013-08-27 13:05:00,87.1,70.6,30.01,North,354,1.4,3.1,58,0.00,,,0.00,WUHU216HW,2013-08-27 18:05:00,
2013-08-27 13:10:00,87.5,70.9,30.01,SW,235,2.0,3.1,58,0.00,,,0.00,WUHU216HW,2013-08-27 18:10:00,
2013-08-27 13:15:00,87.3,70.7,30.01,WNW,298,1.5,3.1,58,0.00,,,0.00,WUHU216HW,2013-08-27 18:15:00,
2013-08-27 13:20:00,87.3,70.2,30.01,SW,225,1.9,2.7,57,0.00,,,0.00,WUHU216HW,2013-08-27 18:20:00,
2013-08-27 13:25:00,87.5,70.4,30.01,SW,225,3.1,3.1,57,0.00,,,0.00,WUHU216HW,2013-08-27 18:25:00,
2013-08-27 13:30:00,87.5,69.8,30.00,West,274,2.2,3.1,56,0.00,,,0.00,WUHU216HW,2013-08-27 18:30:00,
2013-08-27 13:35:00,87.5,70.9,30.00,WSW,248,1.8,2.7,58,0.00,,,0.00,WUHU216HW,2013-08-27 18:35:00,
2013-08-27 13:40:00,87.5,70.9,30.00,SW,225,2.5,3.1,58,0.00,,,0.00,WUHU216HW,2013-08-27 18:40:00,
2013-08-27 13:45:00,87.5,69.8,30.00,SW,225,2.2,3.1,56,0.00,,,0.00,WUHU216HW,2013-08-27 18:45:00,
2013-08-27 13:50:00,87.7,70.0,30.00,SW,225,5.1,5.1,56,0.00,,,0.00,WUHU216HW,2013-08-27 18:50:00,
2013-08-27 13:55:00,88.0,70.9,30.00,West,270,2.7,5.1,57,0.00,,,0.00,WUHU216HW,2013-08-27 18:55:00,
2013-08-27 14:00:00,88.2,70.0,30.00,SSW,212,2.3,4.0,55,0.00,,,0.00,WUHU216HW,2013-08-27 19:00:00,
2013-08-27 14:05:00,88.6,69.2,29.99,ESE,113,3.8,3.8,53,0.00,,,0.00,WUHU216HW,2013-08-27 19:05:00,
2013-08-27 14:10:00,88.7,69.4,29.99,NW,315,2.5,4.3,53,0.00,,,0.00,WUHU216HW,2013-08-27 19:10:00,
2013-08-27 14:15:00,88.6,69.2,29.99,SW,225,3.4,4.3,53,0.00,,,0.00,WUHU216HW,2013-08-27 19:15:00,
2013-08-27 14:20:00,88.6,70.3,29.99,SE,135,1.5,3.4,55,0.00,,,0.00,WUHU216HW,2013-08-27 19:20:00,
2013-08-27 14:25:00,88.6,69.2,29.98,SW,225,3.5,4.0,53,0.00,,,0.00,WUHU216HW,2013-08-27 19:25:00,
2013-08-27 14:30:00,88.6,69.8,29.98,WSW,248,0.6,4.0,54,0.00,,,0.00,WUHU216HW,2013-08-27 19:30:00,
2013-08-27 14:35:00,88.6,69.2,29.98,SW,229,3.3,3.8,53,0.00,,,0.00,WUHU216HW,2013-08-27 19:35:00,
2013-08-27 14:40:00,88.9,69.0,29.98,SSW,209,3.1,4.7,52,0.00,,,0.00,WUHU216HW,2013-08-27 19:40:00,
2013-08-27 14:45:00,89.1,70.3,29.98,SW,225,2.4,4.7,54,0.00,,,0.00,WUHU216HW,2013-08-27 19:45:00,
2013-08-27 14:50:00,88.9,69.0,29.97,SSW,203,3.4,4.7,52,0.00,,,0.00,WUHU216HW,2013-08-27 19:50:00,
2013-08-27 14:55:00,88.6,69.2,29.97,WSW,248,1.8,4.7,53,0.00,,,0.00,WUHU216HW,2013-08-27 19:55:00,
2013-08-27 15:00:00,88.6,69.8,29.97,West,271,1.0,2.5,54,0.00,,,0.00,WUHU216HW,2013-08-27 20:00:00,
2013-08-27 15:05:00,88.4,70.1,29.97,SE,135,1.5,2.5,55,0.00,,,0.00,WUHU216HW,2013-08-27 20:05:00,
2013-08-27 15:10:00,88.2,70.0,29.97,SW,225,2.0,2.0,55,0.00,,,0.00,WUHU216HW,2013-08-27 20:10:00,
2013-08-27 15:15:00,88.2,70.6,29.97,West,270,2.5,3.4,56,0.00,,,0.00,WUHU216HW,2013-08-27 20:15:00,
2013-08-27 15:20:00,88.0,70.4,29.97,SW,225,1.7,3.4,56,0.00,,,0.00,WUHU216HW,2013-08-27 20:20:00,
2013-08-27 15:25:00,88.2,69.5,29.97,West,279,2.7,3.1,54,0.00,,,0.00,WUHU216HW,2013-08-27 20:25:00,
2013-08-27 15:30:00,88.4,70.1,29.97,SW,229,3.5,4.5,55,0.00,,,0.00,WUHU216HW,2013-08-27 20:30:00,
2013-08-27 15:35:00,88.4,69.6,29.97,SW,225,1.8,4.5,54,0.00,,,0.00,WUHU216HW,2013-08-27 20:35:00,
2013-08-27 15:40:00,88.6,69.8,29.96,WSW,248,1.3,4.0,54,0.00,,,0.00,WUHU216HW,2013-08-27 20:40:00,
2013-08-27 15:45:00,88.6,69.8,29.96,SSW,203,2.7,4.0,54,0.00,,,0.00,WUHU216HW,2013-08-27 20:45:00,
2013-08-27 15:50:00,88.9,70.1,29.96,WNW,286,2.2,3.4,54,0.00,,,0.00,WUHU216HW,2013-08-27 20:50:00,
2013-08-27 15:55:00,89.1,70.3,29.96,West,270,1.8,4.7,54,0.00,,,0.00,WUHU216HW,2013-08-27 20:55:00,
2013-08-27 16:00:00,89.3,69.8,29.96,WSW,248,3.1,4.7,53,0.00,,,0.00,WUHU216HW,2013-08-27 21:00:00,
2013-08-27 16:05:00,89.3,70.4,29.96,SSW,197,1.5,3.1,54,0.00,,,0.00,WUHU216HW,2013-08-27 21:05:00,
2013-08-27 16:10:00,88.9,70.1,29.96,SW,225,1.8,3.4,54,0.00,,,0.00,WUHU216HW,2013-08-27 21:10:00,
2013-08-27 16:15:00,88.4,69.6,29.96,SW,225,4.0,4.0,54,0.00,,,0.00,WUHU216HW,2013-08-27 21:15:00,
2013-08-27 16:20:00,88.6,70.8,29.95,South,180,1.1,4.0,56,0.00,,,0.00,WUHU216HW,2013-08-27 21:20:00,
2013-08-27 16:25:00,88.6,70.3,29.95,SW,225,1.3,3.6,55,0.00,,,0.00,WUHU216HW,2013-08-27 21:25:00,
2013-08-27 16:30:00,88.0,69.9,29.95,SW,234,1.5,3.6,55,0.00,,,0.00,WUHU216HW,2013-08-27 21:30:00,
2013-08-27 16:35:00,88.2,70.0,29.95,WSW,248,1.1,2.5,55,0.00,,,0.00,WUHU216HW,2013-08-27 21:35:00,
2013-08-27 16:40:00,88.4,69.6,29.95,WSW,248,4.5,4.5,54,0.00,,,0.00,WUHU216HW,2013-08-27 21:40:00,
2013-08-27 16:45:00,88.4,69.6,29.95,West,270,1.8,4.5,54,0.00,,,0.00,WUHU216HW,2013-08-27 21:45:00,
2013-08-27 16:50:00,88.6,69.8,29.95,SW,214,2.3,4.0,54,0.00,,,0.00,WUHU216HW,2013-08-27 21:50:00,
2013-08-27 16:55:00,88.4,69.6,29.96,SSW,203,2.7,4.0,54,0.00,,,0.00,WUHU216HW,2013-08-27 21:55:00,
2013-08-27 17:00:00,88.0,69.9,29.96,SW,225,0.9,3.4,55,0.00,,,0.00,WUHU216HW,2013-08-27 22:00:00,
2013-08-27 17:05:00,87.5,69.8,29.95,SSW,203,0.6,2.7,56,0.00,,,0.00,WUHU216HW,2013-08-27 22:05:00,
2013-08-27 17:10:00,87.7,70.0,29.95,SW,225,2.0,3.4,56,0.00,,,0.00,WUHU216HW,2013-08-27 22:10:00,
2013-08-27 17:15:00,87.8,69.7,29.95,West,262,2.3,3.4,55,0.00,,,0.00,WUHU216HW,2013-08-27 22:15:00,
2013-08-27 17:20:00,88.0,70.4,29.95,SW,230,2.2,3.4,56,0.00,,,0.00,WUHU216HW,2013-08-27 22:20:00,
2013-08-27 17:25:00,87.7,70.0,29.95,WSW,248,0.8,3.4,56,0.00,,,0.00,WUHU216HW,2013-08-27 22:25:00,
2013-08-27 17:30:00,87.3,70.2,29.95,SW,225,0.6,2.9,57,0.00,,,0.00,WUHU216HW,2013-08-27 22:30:00,
2013-08-27 17:35:00,86.9,69.8,29.95,SW,225,1.2,2.0,57,0.00,,,0.00,WUHU216HW,2013-08-27 22:35:00,
2013-08-27 17:40:00,86.9,70.4,29.95,WSW,248,2.2,2.5,58,0.00,,,0.00,WUHU216HW,2013-08-27 22:40:00,
2013-08-27 17:45:00,87.5,70.9,29.95,SE,135,1.1,2.5,58,0.00,,,0.00,WUHU216HW,2013-08-27 22:45:00,
2013-08-27 17:50:00,87.8,70.2,29.95,SW,233,2.8,3.6,56,0.00,,,0.00,WUHU216HW,2013-08-27 22:50:00,
2013-08-27 17:55:00,88.2,71.1,29.95,West,270,1.3,3.6,57,0.00,,,0.00,WUHU216HW,2013-08-27 22:55:00,
2013-08-27 18:00:00,88.2,70.6,29.95,WSW,248,2.7,2.7,56,0.00,,,0.00,WUHU216HW,2013-08-27 23:00:00,
2013-08-27 18:05:00,87.8,70.2,29.95,SW,225,2.7,2.7,56,0.00,,,0.00,WUHU216HW,2013-08-27 23:05:00,
2013-08-27 18:10:00,87.7,70.6,29.94,SW,225,0.8,2.7,57,0.00,,,0.00,WUHU216HW,2013-08-27 23:10:00,
2013-08-27 18:15:00,87.5,70.9,29.94,WSW,248,1.1,2.2,58,0.00,,,0.00,WUHU216HW,2013-08-27 23:15:00,
2013-08-27 18:20:00,87.1,70.0,29.95,SW,222,0.8,1.6,57,0.00,,,0.00,WUHU216HW,2013-08-27 23:20:00,
2013-08-27 18:25:00,86.8,70.2,29.95,SW,225,1.5,1.8,58,0.00,,,0.00,WUHU216HW,2013-08-27 23:25:00,
2013-08-27 18:30:00,86.4,69.8,29.95,WSW,237,1.0,1.8,58,0.00,,,0.00,WUHU216HW,2013-08-27 23:30:00,
2013-08-27 18:35:00,86.0,70.0,29.94,WSW,248,1.8,2.7,59,0.00,,,0.00,WUHU216HW,2013-08-27 23:35:00,
2013-08-27 18:40:00,85.9,70.4,29.95,WSW,248,0.2,2.7,60,0.00,,,0.00,WUHU216HW,2013-08-27 23:40:00,
2013-08-27 18:45:00,85.5,70.6,29.95,SW,225,0.8,1.8,61,0.00,,,0.00,WUHU216HW,2013-08-27 23:45:00,
2013-08-27 18:50:00,85.3,70.4,29.95,WSW,248,0.1,1.8,61,0.00,,,0.00,WUHU216HW,2013-08-27 23:50:00,
2013-08-27 18:55:00,85.0,70.0,29.94,SW,225,0.6,1.8,61,0.00,,,0.00,WUHU216HW,2013-08-27 23:55:00,
2013-08-27 19:00:00,84.8,70.4,29.94,WSW,248,0.0,1.8,62,0.00,,,0.00,WUHU216HW,2013-08-28 00:00:00,
2013-08-27 19:05:00,84.6,70.2,29.95,WSW,248,0.4,1.8,62,0.00,,,0.00,WUHU216HW,2013-08-28 00:05:00,
2013-08-27 19:10:00,84.2,70.3,29.95,WSW,248,0.2,1.1,63,0.00,,,0.00,WUHU216HW,2013-08-28 00:10:00,
2013-08-27 19:15:00,83.9,69.9,29.95,SW,225,1.1,1.8,63,0.00,,,0.00,WUHU216HW,2013-08-28 00:15:00,
2013-08-27 19:20:00,83.5,70.0,29.95,SW,225,0.2,1.8,64,0.00,,,0.00,WUHU216HW,2013-08-28 00:20:00,
2013-08-27 19:25:00,83.2,69.7,29.95,SW,225,0.0,0.4,64,0.00,,,0.00,WUHU216HW,2013-08-28 00:25:00,
2013-08-27 19:30:00,82.8,69.8,29.94,SW,225,0.0,0.0,65,0.00,,,0.00,WUHU216HW,2013-08-28 00:30:00,
2013-08-27 19:35:00,82.4,69.4,29.94,SW,225,0.0,0.0,65,0.00,,,0.00,WUHU216HW,2013-08-28 00:35:00,
2013-08-27 19:40:00,82.1,69.0,29.94,SW,225,0.0,0.0,65,0.00,,,0.00,WUHU216HW,2013-08-28 00:40:00,
2013-08-27 19:45:00,81.7,69.2,29.94,SW,225,0.0,0.0,66,0.00,,,0.00,WUHU216HW,2013-08-28 00:45:00,
2013-08-27 19:50:00,81.4,68.9,29.95,SW,225,0.0,0.0,66,0.00,,,0.00,WUHU216HW,2013-08-28 00:50:00,
2013-08-27 19:55:00,81.0,68.6,29.95,SW,225,0.0,0.0,66,0.00,,,0.00,WUHU216HW,2013-08-28 00:55:00,
2013-08-27 20:00:00,80.6,68.7,29.95,SW,225,0.0,0.0,67,0.00,,,0.00,WUHU216HW,2013-08-28 01:00:00,
2013-08-27 20:05:00,80.3,68.3,29.95,SW,225,0.0,0.0,67,0.00,,,0.00,WUHU216HW,2013-08-28 01:05:00,
2013-08-27 20:10:00,80.1,68.6,29.95,SW,225,0.0,0.0,68,0.00,,,0.00,WUHU216HW,2013-08-28 01:10:00,
2013-08-27 20:15:00,79.7,68.2,29.95,SW,225,0.0,0.0,68,0.00,,,0.00,WUHU216HW,2013-08-28 01:15:00,
2013-08-27 20:20:00,79.6,68.5,29.95,SW,225,0.0,0.0,69,0.00,,,0.00,WUHU216HW,2013-08-28 01:20:00,
2013-08-27 20:25:00,79.2,68.1,29.95,SW,225,0.0,0.0,69,0.00,,,0.00,WUHU216HW,2013-08-28 01:25:00,
2013-08-27 20:30:00,79.0,68.4,29.95,SW,225,0.0,0.0,70,0.00,,,0.00,WUHU216HW,2013-08-28 01:30:00,
2013-08-27 20:35:00,78.8,68.2,29.96,SW,225,0.0,0.0,70,0.00,,,0.00,WUHU216HW,2013-08-28 01:35:00,
2013-08-27 20:40:00,78.7,68.5,29.96,SW,225,0.0,0.0,71,0.00,,,0.00,WUHU216HW,2013-08-28 01:40:00,
2013-08-27 20:45:00,78.5,68.3,29.96,SW,225,0.0,0.0,71,0.00,,,0.00,WUHU216HW,2013-08-28 01:45:00,
2013-08-27 20:50:00,78.1,68.0,29.96,SW,225,0.0,0.0,71,0.00,,,0.00,WUHU216HW,2013-08-28 01:50:00,
2013-08-27 20:55:00,77.9,67.8,29.96,SW,225,0.0,0.0,71,0.00,,,0.00,WUHU216HW,2013-08-28 01:55:00,
2013-08-27 21:00:00,77.8,68.1,29.96,SW,225,0.0,0.0,72,0.00,,,0.00,WUHU216HW,2013-08-28 02:00:00,
2013-08-27 21:05:00,77.8,68.1,29.96,SW,225,0.0,0.0,72,0.00,,,0.00,WUHU216HW,2013-08-28 02:05:00,
2013-08-27 21:10:00,77.4,68.0,29.96,SW,225,0.0,0.0,73,0.00,,,0.00,WUHU216HW,2013-08-28 02:10:00,
2013-08-27 21:15:00,77.4,68.0,29.96,SW,225,0.0,0.0,73,0.00,,,0.00,WUHU216HW,2013-08-28 02:15:00,
2013-08-27 21:20:00,77.2,67.9,29.96,SW,225,0.0,0.0,73,0.00,,,0.00,WUHU216HW,2013-08-28 02:20:00,
2013-08-27 21:25:00,77.0,67.8,29.97,SW,225,0.0,0.0,73,0.00,,,0.00,WUHU216HW,2013-08-28 02:25:00,
2013-08-27 21:30:00,77.0,68.1,29.96,SW,225,0.0,0.0,74,0.00,,,0.00,WUHU216HW,2013-08-28 02:30:00,
2013-08-27 21:35:00,76.9,68.0,29.97,SW,225,0.0,0.0,74,0.00,,,0.00,WUHU216HW,2013-08-28 02:35:00,
2013-08-27 21:40:00,76.7,67.8,29.97,SW,225,0.0,0.0,74,0.00,,,0.00,WUHU216HW,2013-08-28 02:40:00,
2013-08-27 21:45:00,76.7,67.8,29.97,SW,225,0.0,0.0,74,0.00,,,0.00,WUHU216HW,2013-08-28 02:45:00,
2013-08-27 21:50:00,76.5,67.6,29.97,SW,225,0.0,0.0,74,0.00,,,0.00,WUHU216HW,2013-08-28 02:50:00,
2013-08-27 21:55:00,76.3,67.8,29.97,SW,225,0.0,0.0,75,0.00,,,0.00,WUHU216HW,2013-08-28 02:55:00,
2013-08-27 22:00:00,76.3,67.8,29.97,SW,225,0.0,0.0,75,0.00,,,0.00,WUHU216HW,2013-08-28 03:00:00,
2013-08-27 22:05:00,76.1,67.7,29.97,SW,225,0.0,0.0,75,0.00,,,0.00,WUHU216HW,2013-08-28 03:05:00,
2013-08-27 22:10:00,76.0,67.5,29.98,SW,225,0.0,0.0,75,0.00,,,0.00,WUHU216HW,2013-08-28 03:10:00,
2013-08-27 22:15:00,76.0,67.5,29.97,SW,225,0.0,0.0,75,0.00,,,0.00,WUHU216HW,2013-08-28 03:15:00,
2013-08-27 22:20:00,75.8,67.3,29.98,SW,225,0.0,0.0,75,0.00,,,0.00,WUHU216HW,2013-08-28 03:20:00,
2013-08-27 22:25:00,75.8,67.3,29.98,SW,225,0.0,0.0,75,0.00,,,0.00,WUHU216HW,2013-08-28 03:25:00,
2013-08-27 22:30:00,75.6,67.5,29.98,SW,225,0.0,0.0,76,0.00,,,0.00,WUHU216HW,2013-08-28 03:30:00,
2013-08-27 22:35:00,75.4,67.3,29.97,SW,225,0.0,0.0,76,0.00,,,0.00,WUHU216HW,2013-08-28 03:35:00,
2013-08-27 22:40:00,75.2,67.6,29.97,SW,225,0.0,0.0,77,0.00,,,0.00,WUHU216HW,2013-08-28 03:40:00,
2013-08-27 22:45:00,75.1,67.4,29.98,SW,225,0.0,0.0,77,0.00,,,0.00,WUHU216HW,2013-08-28 03:45:00,
2013-08-27 22:50:00,74.9,67.6,29.97,SW,225,0.0,0.0,78,0.00,,,0.00,WUHU216HW,2013-08-28 03:50:00,
2013-08-27 22:55:00,74.7,67.4,29.98,SW,225,0.0,0.0,78,0.00,,,0.00,WUHU216HW,2013-08-28 03:55:00,
2013-08-27 23:00:00,74.5,67.2,29.98,SW,225,0.0,0.0,78,0.00,,,0.00,WUHU216HW,2013-08-28 04:00:00,
2013-08-27 23:01:00,74.5,67.2,29.98,SW,225,0.0,0.0,78,0.00,,,0.00,WUHU216HW,2013-08-28 04:01:00,
2013-08-27 23:06:00,74.5,67.2,29.97,SW,225,0.0,0.0,78,0.00,,,0.00,WUHU216HW,2013-08-28 04:06:00,
2013-08-27 23:11:00,74.3,67.1,29.97,SW,225,0.0,0.0,78,0.00,,,0.00,WUHU216HW,2013-08-28 04:11:00,
2013-08-27 23:16:00,74.3,67.1,29.97,SW,225,0.0,0.0,78,0.00,,,0.00,WUHU216HW,2013-08-28 04:16:00,
2013-08-27 23:21:00,74.2,67.3,29.97,SW,225,0.0,0.0,79,0.00,,,0.00,WUHU216HW,2013-08-28 04:21:00,
2013-08-27 23:26:00,74.2,67.3,29.97,SW,225,0.0,0.0,79,0.00,,,0.00,WUHU216HW,2013-08-28 04:26:00,
2013-08-27 23:31:00,74.0,67.2,29.97,SW,225,0.0,0.0,79,0.00,,,0.00,WUHU216HW,2013-08-28 04:31:00,
2013-08-27 23:36:00,74.0,67.2,29.97,SW,225,0.0,0.0,79,0.00,,,0.00,WUHU216HW,2013-08-28 04:36:00,
2013-08-27 23:41:00,73.8,67.3,29.97,SW,225,0.0,0.0,80,0.00,,,0.00,WUHU216HW,2013-08-28 04:41:00,
2013-08-27 23:46:00,73.8,67.3,29.97,SW,225,0.0,0.0,80,0.00,,,0.00,WUHU216HW,2013-08-28 04:46:00,
2013-08-27 23:51:00,73.8,67.3,29.97,SW,225,0.0,0.0,80,0.00,,,0.00,WUHU216HW,2013-08-28 04:51:00,
2013-08-27 23:56:00,73.4,67.0,29.97,SSW,203,0.0,0.0,80,0.00,,,0.00,WUHU216HW,2013-08-28 04:56:00,